sensor_id;sensor_type;location;lat;lon;timestamp;temperature;humidity
23137;DHT22;11737;50.558;7.258;2023-04-06T00:02:12;3.70;94.20
23137;DHT22;11737;50.558;7.258;2023-04-06T00:04:40;3.60;93.10
23137;DHT22;11737;50.558;7.258;2023-04-06T00:07:07;3.50;93.30
23137;DHT22;11737;50.558;7.258;2023-04-06T00:09:35;3.40;93.20
23137;DHT22;11737;50.558;7.258;2023-04-06T00:12:02;3.30;93.60
23137;DHT22;11737;50.558;7.258;2023-04-06T00:14:30;3.30;93.80
23137;DHT22;11737;50.558;7.258;2023-04-06T00:16:57;3.30;93.40
23137;DHT22;11737;50.558;7.258;2023-04-06T00:19:25;3.30;92.60
23137;DHT22;11737;50.558;7.258;2023-04-06T00:21:52;3.30;92.20
23137;DHT22;11737;50.558;7.258;2023-04-06T00:24:20;3.30;92.40
23137;DHT22;11737;50.558;7.258;2023-04-06T00:26:47;3.30;93.10
23137;DHT22;11737;50.558;7.258;2023-04-06T00:29:15;3.30;92.90
23137;DHT22;11737;50.558;7.258;2023-04-06T00:31:42;3.20;93.50
23137;DHT22;11737;50.558;7.258;2023-04-06T00:34:10;3.20;93.70
23137;DHT22;11737;50.558;7.258;2023-04-06T00:36:37;3.10;93.60
23137;DHT22;11737;50.558;7.258;2023-04-06T00:39:05;3.10;93.70
23137;DHT22;11737;50.558;7.258;2023-04-06T00:41:32;3.10;94.00
23137;DHT22;11737;50.558;7.258;2023-04-06T00:44:00;3.00;94.40
23137;DHT22;11737;50.558;7.258;2023-04-06T00:46:28;3.00;94.70
23137;DHT22;11737;50.558;7.258;2023-04-06T00:48:56;2.90;94.90
23137;DHT22;11737;50.558;7.258;2023-04-06T00:51:24;2.90;95.40
23137;DHT22;11737;50.558;7.258;2023-04-06T00:53:51;2.80;95.60
23137;DHT22;11737;50.558;7.258;2023-04-06T00:56:19;2.80;95.00
23137;DHT22;11737;50.558;7.258;2023-04-06T00:58:47;3.00;95.10
23137;DHT22;11737;50.558;7.258;2023-04-06T01:01:15;3.10;95.40
23137;DHT22;11737;50.558;7.258;2023-04-06T01:03:42;3.10;95.80
23137;DHT22;11737;50.558;7.258;2023-04-06T01:06:12;3.00;95.70
23137;DHT22;11737;50.558;7.258;2023-04-06T01:08:39;2.90;96.20
23137;DHT22;11737;50.558;7.258;2023-04-06T01:11:07;2.80;97.10
23137;DHT22;11737;50.558;7.258;2023-04-06T01:13:34;2.70;97.40
23137;DHT22;11737;50.558;7.258;2023-04-06T01:16:02;2.60;97.40
23137;DHT22;11737;50.558;7.258;2023-04-06T01:18:30;2.50;97.70
23137;DHT22;11737;50.558;7.258;2023-04-06T01:20:57;2.50;96.90
23137;DHT22;11737;50.558;7.258;2023-04-06T01:23:26;2.50;97.40
23137;DHT22;11737;50.558;7.258;2023-04-06T01:25:53;2.50;97.60
23137;DHT22;11737;50.558;7.258;2023-04-06T01:28:21;2.40;97.70
23137;DHT22;11737;50.558;7.258;2023-04-06T01:30:49;2.40;97.40
23137;DHT22;11737;50.558;7.258;2023-04-06T01:33:16;2.30;97.60
23137;DHT22;11737;50.558;7.258;2023-04-06T01:35:44;2.30;98.00
23137;DHT22;11737;50.558;7.258;2023-04-06T01:38:11;2.20;98.90
23137;DHT22;11737;50.558;7.258;2023-04-06T01:40:39;2.20;99.40
23137;DHT22;11737;50.558;7.258;2023-04-06T01:43:06;2.20;99.80
23137;DHT22;11737;50.558;7.258;2023-04-06T01:45:34;2.20;99.70
23137;DHT22;11737;50.558;7.258;2023-04-06T01:48:02;2.20;98.80
23137;DHT22;11737;50.558;7.258;2023-04-06T01:50:29;2.20;98.10
23137;DHT22;11737;50.558;7.258;2023-04-06T01:52:57;2.20;98.90
23137;DHT22;11737;50.558;7.258;2023-04-06T01:55:24;2.20;99.80
23137;DHT22;11737;50.558;7.258;2023-04-06T01:57:52;2.10;99.60
23137;DHT22;11737;50.558;7.258;2023-04-06T02:00:20;2.10;99.90
23137;DHT22;11737;50.558;7.258;2023-04-06T02:02:47;2.10;99.90
23137;DHT22;11737;50.558;7.258;2023-04-06T02:05:15;2.10;99.70
23137;DHT22;11737;50.558;7.258;2023-04-06T02:07:43;2.10;99.40
23137;DHT22;11737;50.558;7.258;2023-04-06T02:10:14;2.10;99.60
23137;DHT22;11737;50.558;7.258;2023-04-06T02:12:42;2.10;99.90
23137;DHT22;11737;50.558;7.258;2023-04-06T02:15:09;2.00;99.90
23137;DHT22;11737;50.558;7.258;2023-04-06T02:17:39;2.00;99.90
23137;DHT22;11737;50.558;7.258;2023-04-06T02:20:07;1.90;99.90
23137;DHT22;11737;50.558;7.258;2023-04-06T02:22:35;1.90;99.90
23137;DHT22;11737;50.558;7.258;2023-04-06T02:25:03;1.80;99.90
23137;DHT22;11737;50.558;7.258;2023-04-06T02:27:30;1.80;99.90
23137;DHT22;11737;50.558;7.258;2023-04-06T02:29:58;1.80;99.90
23137;DHT22;11737;50.558;7.258;2023-04-06T02:32:26;1.80;99.90
23137;DHT22;11737;50.558;7.258;2023-04-06T02:34:53;1.80;99.90
23137;DHT22;11737;50.558;7.258;2023-04-06T02:37:21;1.80;99.90
23137;DHT22;11737;50.558;7.258;2023-04-06T02:39:50;1.80;99.90
23137;DHT22;11737;50.558;7.258;2023-04-06T02:42:18;1.80;99.90
23137;DHT22;11737;50.558;7.258;2023-04-06T02:44:45;1.80;99.90
23137;DHT22;11737;50.558;7.258;2023-04-06T02:47:13;1.80;99.90
23137;DHT22;11737;50.558;7.258;2023-04-06T02:49:41;1.80;99.90
23137;DHT22;11737;50.558;7.258;2023-04-06T02:52:08;1.70;99.90
23137;DHT22;11737;50.558;7.258;2023-04-06T02:54:36;1.70;99.90
23137;DHT22;11737;50.558;7.258;2023-04-06T02:57:03;1.70;99.90
23137;DHT22;11737;50.558;7.258;2023-04-06T02:59:32;1.60;99.90
23137;DHT22;11737;50.558;7.258;2023-04-06T03:01:59;1.60;99.90
23137;DHT22;11737;50.558;7.258;2023-04-06T03:04:27;1.60;99.90
23137;DHT22;11737;50.558;7.258;2023-04-06T03:06:54;1.60;99.90
23137;DHT22;11737;50.558;7.258;2023-04-06T03:09:22;1.60;99.90
23137;DHT22;11737;50.558;7.258;2023-04-06T03:11:49;1.60;99.90
23137;DHT22;11737;50.558;7.258;2023-04-06T03:14:17;1.60;99.90
23137;DHT22;11737;50.558;7.258;2023-04-06T03:16:46;1.50;99.90
23137;DHT22;11737;50.558;7.258;2023-04-06T03:19:13;1.50;99.90
23137;DHT22;11737;50.558;7.258;2023-04-06T03:21:42;1.50;99.90
23137;DHT22;11737;50.558;7.258;2023-04-06T03:24:09;1.50;99.90
23137;DHT22;11737;50.558;7.258;2023-04-06T03:26:37;1.60;99.90
23137;DHT22;11737;50.558;7.258;2023-04-06T03:29:04;1.80;99.90
23137;DHT22;11737;50.558;7.258;2023-04-06T03:31:32;1.70;99.90
23137;DHT22;11737;50.558;7.258;2023-04-06T03:34:00;1.60;99.90
23137;DHT22;11737;50.558;7.258;2023-04-06T03:36:27;1.50;99.90
23137;DHT22;11737;50.558;7.258;2023-04-06T03:38:55;1.50;99.90
23137;DHT22;11737;50.558;7.258;2023-04-06T03:41:22;1.50;99.90
23137;DHT22;11737;50.558;7.258;2023-04-06T03:43:50;1.40;99.90
23137;DHT22;11737;50.558;7.258;2023-04-06T03:46:17;1.40;99.90
23137;DHT22;11737;50.558;7.258;2023-04-06T03:48:48;1.40;99.90
23137;DHT22;11737;50.558;7.258;2023-04-06T03:51:15;1.40;99.90
23137;DHT22;11737;50.558;7.258;2023-04-06T03:53:42;1.30;99.90
23137;DHT22;11737;50.558;7.258;2023-04-06T03:56:10;1.30;99.90
23137;DHT22;11737;50.558;7.258;2023-04-06T03:58:37;1.30;99.90
23137;DHT22;11737;50.558;7.258;2023-04-06T04:01:05;1.30;99.90
23137;DHT22;11737;50.558;7.258;2023-04-06T04:03:32;1.30;99.90
23137;DHT22;11737;50.558;7.258;2023-04-06T04:05:59;1.30;99.90
23137;DHT22;11737;50.558;7.258;2023-04-06T04:08:27;1.30;99.90
23137;DHT22;11737;50.558;7.258;2023-04-06T04:10:54;1.30;99.90
23137;DHT22;11737;50.558;7.258;2023-04-06T04:13:22;1.40;99.90
23137;DHT22;11737;50.558;7.258;2023-04-06T04:15:49;1.40;99.90
23137;DHT22;11737;50.558;7.258;2023-04-06T04:18:17;1.40;99.90
23137;DHT22;11737;50.558;7.258;2023-04-06T04:20:44;1.30;99.90
23137;DHT22;11737;50.558;7.258;2023-04-06T04:23:12;1.30;99.90
23137;DHT22;11737;50.558;7.258;2023-04-06T04:25:40;1.20;99.90
23137;DHT22;11737;50.558;7.258;2023-04-06T04:28:07;1.20;99.90
23137;DHT22;11737;50.558;7.258;2023-04-06T04:30:35;1.20;99.90
23137;DHT22;11737;50.558;7.258;2023-04-06T04:33:02;1.20;99.90
23137;DHT22;11737;50.558;7.258;2023-04-06T04:35:30;1.20;99.90
23137;DHT22;11737;50.558;7.258;2023-04-06T04:37:57;1.20;99.90
23137;DHT22;11737;50.558;7.258;2023-04-06T04:40:25;1.20;99.90
23137;DHT22;11737;50.558;7.258;2023-04-06T04:42:52;1.30;99.90
23137;DHT22;11737;50.558;7.258;2023-04-06T04:45:20;1.30;99.90
23137;DHT22;11737;50.558;7.258;2023-04-06T04:47:47;1.30;99.90
23137;DHT22;11737;50.558;7.258;2023-04-06T04:50:15;1.30;99.90
23137;DHT22;11737;50.558;7.258;2023-04-06T04:52:42;1.30;99.90
23137;DHT22;11737;50.558;7.258;2023-04-06T04:55:10;1.30;99.90
23137;DHT22;11737;50.558;7.258;2023-04-06T04:57:37;1.40;99.90
23137;DHT22;11737;50.558;7.258;2023-04-06T05:00:06;1.40;99.90
23137;DHT22;11737;50.558;7.258;2023-04-06T05:02:34;1.50;99.90
23137;DHT22;11737;50.558;7.258;2023-04-06T05:05:02;1.60;99.90
23137;DHT22;11737;50.558;7.258;2023-04-06T05:07:29;1.60;99.90
23137;DHT22;11737;50.558;7.258;2023-04-06T05:09:57;1.50;99.90
23137;DHT22;11737;50.558;7.258;2023-04-06T05:12:24;1.60;99.90
23137;DHT22;11737;50.558;7.258;2023-04-06T05:14:54;1.50;99.90
23137;DHT22;11737;50.558;7.258;2023-04-06T05:17:21;1.60;99.90
23137;DHT22;11737;50.558;7.258;2023-04-06T05:19:49;1.60;99.90
23137;DHT22;11737;50.558;7.258;2023-04-06T05:22:16;1.70;99.90
23137;DHT22;11737;50.558;7.258;2023-04-06T05:24:44;1.80;99.90
23137;DHT22;11737;50.558;7.258;2023-04-06T05:27:12;1.80;99.90
23137;DHT22;11737;50.558;7.258;2023-04-06T05:29:39;1.90;99.90
23137;DHT22;11737;50.558;7.258;2023-04-06T05:32:07;1.90;99.90
23137;DHT22;11737;50.558;7.258;2023-04-06T05:34:34;1.90;99.90
23137;DHT22;11737;50.558;7.258;2023-04-06T05:37:02;1.90;99.90
23137;DHT22;11737;50.558;7.258;2023-04-06T05:39:29;2.10;99.90
23137;DHT22;11737;50.558;7.258;2023-04-06T05:41:57;2.10;99.90
23137;DHT22;11737;50.558;7.258;2023-04-06T05:44:24;2.30;99.90
23137;DHT22;11737;50.558;7.258;2023-04-06T05:46:52;2.50;99.90
23137;DHT22;11737;50.558;7.258;2023-04-06T05:49:19;2.60;99.90
23137;DHT22;11737;50.558;7.258;2023-04-06T05:51:47;2.60;99.90
23137;DHT22;11737;50.558;7.258;2023-04-06T05:54:14;2.60;99.90
23137;DHT22;11737;50.558;7.258;2023-04-06T05:56:42;2.70;99.90
23137;DHT22;11737;50.558;7.258;2023-04-06T05:59:09;2.80;99.90
23137;DHT22;11737;50.558;7.258;2023-04-06T06:01:37;2.90;99.90
23137;DHT22;11737;50.558;7.258;2023-04-06T06:04:04;3.00;99.90
23137;DHT22;11737;50.558;7.258;2023-04-06T06:06:32;3.10;99.90
23137;DHT22;11737;50.558;7.258;2023-04-06T06:08:59;3.30;99.90
23137;DHT22;11737;50.558;7.258;2023-04-06T06:11:27;3.60;99.90
23137;DHT22;11737;50.558;7.258;2023-04-06T06:13:55;3.80;99.90
23137;DHT22;11737;50.558;7.258;2023-04-06T06:16:23;4.00;99.90
23137;DHT22;11737;50.558;7.258;2023-04-06T06:18:50;4.10;99.90
23137;DHT22;11737;50.558;7.258;2023-04-06T06:21:18;4.30;99.90
23137;DHT22;11737;50.558;7.258;2023-04-06T06:23:46;4.50;99.90
23137;DHT22;11737;50.558;7.258;2023-04-06T06:26:15;4.70;99.90
23137;DHT22;11737;50.558;7.258;2023-04-06T06:28:47;4.80;99.90
23137;DHT22;11737;50.558;7.258;2023-04-06T06:31:15;5.00;99.90
23137;DHT22;11737;50.558;7.258;2023-04-06T06:33:43;5.20;99.90
23137;DHT22;11737;50.558;7.258;2023-04-06T06:36:11;5.40;99.90
23137;DHT22;11737;50.558;7.258;2023-04-06T06:38:39;5.50;99.90
23137;DHT22;11737;50.558;7.258;2023-04-06T06:41:06;5.70;99.90
23137;DHT22;11737;50.558;7.258;2023-04-06T06:43:34;6.00;99.90
23137;DHT22;11737;50.558;7.258;2023-04-06T06:46:01;6.10;99.90
23137;DHT22;11737;50.558;7.258;2023-04-06T06:48:29;6.30;99.90
23137;DHT22;11737;50.558;7.258;2023-04-06T06:50:57;6.40;99.90
23137;DHT22;11737;50.558;7.258;2023-04-06T06:53:24;6.60;99.90
23137;DHT22;11737;50.558;7.258;2023-04-06T06:55:52;6.70;99.90
23137;DHT22;11737;50.558;7.258;2023-04-06T06:58:19;6.90;99.90
23137;DHT22;11737;50.558;7.258;2023-04-06T07:00:47;7.00;99.90
23137;DHT22;11737;50.558;7.258;2023-04-06T07:03:15;7.10;99.90
23137;DHT22;11737;50.558;7.258;2023-04-06T07:05:49;7.30;99.90
23137;DHT22;11737;50.558;7.258;2023-04-06T07:08:23;7.40;99.90
23137;DHT22;11737;50.558;7.258;2023-04-06T07:10:47;7.50;99.90
23137;DHT22;11737;50.558;7.258;2023-04-06T07:13:15;7.60;99.90
23137;DHT22;11737;50.558;7.258;2023-04-06T07:15:44;7.80;99.90
23137;DHT22;11737;50.558;7.258;2023-04-06T07:18:12;7.90;99.90
23137;DHT22;11737;50.558;7.258;2023-04-06T07:20:39;8.00;99.90
23137;DHT22;11737;50.558;7.258;2023-04-06T07:23:07;8.10;99.90
23137;DHT22;11737;50.558;7.258;2023-04-06T07:25:34;8.20;99.90
23137;DHT22;11737;50.558;7.258;2023-04-06T07:28:03;8.30;99.90
23137;DHT22;11737;50.558;7.258;2023-04-06T07:30:31;8.50;99.90
23137;DHT22;11737;50.558;7.258;2023-04-06T07:32:58;8.60;99.90
23137;DHT22;11737;50.558;7.258;2023-04-06T07:35:27;8.70;99.90
23137;DHT22;11737;50.558;7.258;2023-04-06T07:37:56;8.80;99.90
23137;DHT22;11737;50.558;7.258;2023-04-06T07:40:24;9.00;99.90
23137;DHT22;11737;50.558;7.258;2023-04-06T07:42:53;9.20;99.90
23137;DHT22;11737;50.558;7.258;2023-04-06T07:45:21;9.30;99.90
23137;DHT22;11737;50.558;7.258;2023-04-06T07:47:48;9.40;99.90
23137;DHT22;11737;50.558;7.258;2023-04-06T07:50:16;9.60;99.90
23137;DHT22;11737;50.558;7.258;2023-04-06T07:52:44;9.80;99.90
23137;DHT22;11737;50.558;7.258;2023-04-06T07:55:11;10.00;99.60
23137;DHT22;11737;50.558;7.258;2023-04-06T07:57:39;10.20;99.60
23137;DHT22;11737;50.558;7.258;2023-04-06T08:00:07;10.40;99.30
23137;DHT22;11737;50.558;7.258;2023-04-06T08:02:36;10.70;99.30
23137;DHT22;11737;50.558;7.258;2023-04-06T08:05:03;11.00;98.80
23137;DHT22;11737;50.558;7.258;2023-04-06T08:07:31;11.40;98.10
23137;DHT22;11737;50.558;7.258;2023-04-06T08:09:58;11.60;97.50
23137;DHT22;11737;50.558;7.258;2023-04-06T08:12:26;11.90;97.30
23137;DHT22;11737;50.558;7.258;2023-04-06T08:14:53;12.20;96.80
23137;DHT22;11737;50.558;7.258;2023-04-06T08:17:21;12.40;97.00
23137;DHT22;11737;50.558;7.258;2023-04-06T08:19:48;12.70;96.70
23137;DHT22;11737;50.558;7.258;2023-04-06T08:22:16;12.90;96.00
23137;DHT22;11737;50.558;7.258;2023-04-06T08:24:43;13.00;95.70
23137;DHT22;11737;50.558;7.258;2023-04-06T08:27:11;13.10;95.40
23137;DHT22;11737;50.558;7.258;2023-04-06T08:29:40;13.20;95.10
23137;DHT22;11737;50.558;7.258;2023-04-06T08:32:08;13.20;94.80
23137;DHT22;11737;50.558;7.258;2023-04-06T08:34:35;13.20;94.10
23137;DHT22;11737;50.558;7.258;2023-04-06T08:37:03;13.10;94.10
23137;DHT22;11737;50.558;7.258;2023-04-06T08:39:31;13.10;94.40
23137;DHT22;11737;50.558;7.258;2023-04-06T08:42:01;13.10;94.50
23137;DHT22;11737;50.558;7.258;2023-04-06T08:44:31;13.10;94.20
23137;DHT22;11737;50.558;7.258;2023-04-06T08:46:59;13.20;94.50
23137;DHT22;11737;50.558;7.258;2023-04-06T08:49:27;13.20;94.50
23137;DHT22;11737;50.558;7.258;2023-04-06T08:51:55;13.40;93.90
23137;DHT22;11737;50.558;7.258;2023-04-06T08:54:23;13.50;93.80
23137;DHT22;11737;50.558;7.258;2023-04-06T08:56:52;13.60;93.70
23137;DHT22;11737;50.558;7.258;2023-04-06T08:59:20;13.70;93.90
23137;DHT22;11737;50.558;7.258;2023-04-06T09:01:48;13.80;93.60
23137;DHT22;11737;50.558;7.258;2023-04-06T09:04:15;14.00;93.20
23137;DHT22;11737;50.558;7.258;2023-04-06T09:06:43;14.20;92.50
23137;DHT22;11737;50.558;7.258;2023-04-06T09:09:11;14.30;92.30
23137;DHT22;11737;50.558;7.258;2023-04-06T09:11:48;14.50;92.40
23137;DHT22;11737;50.558;7.258;2023-04-06T09:14:12;14.60;92.20
23137;DHT22;11737;50.558;7.258;2023-04-06T09:16:45;14.70;92.80
23137;DHT22;11737;50.558;7.258;2023-04-06T09:19:09;14.80;92.40
23137;DHT22;11737;50.558;7.258;2023-04-06T09:21:38;14.90;91.50
23137;DHT22;11737;50.558;7.258;2023-04-06T09:24:07;15.10;91.40
23137;DHT22;11737;50.558;7.258;2023-04-06T09:29:33;15.20;91.40
23137;DHT22;11737;50.558;7.258;2023-04-06T09:32:06;15.40;91.50
23137;DHT22;11737;50.558;7.258;2023-04-06T09:34:34;15.50;91.20
23137;DHT22;11737;50.558;7.258;2023-04-06T09:37:17;15.60;90.90
23137;DHT22;11737;50.558;7.258;2023-04-06T09:39:41;15.90;91.60
23137;DHT22;11737;50.558;7.258;2023-04-06T09:42:09;16.20;91.50
23137;DHT22;11737;50.558;7.258;2023-04-06T09:44:36;16.50;90.90
23137;DHT22;11737;50.558;7.258;2023-04-06T09:47:06;16.70;90.70
23137;DHT22;11737;50.558;7.258;2023-04-06T09:49:34;16.80;89.30
23137;DHT22;11737;50.558;7.258;2023-04-06T09:52:03;16.80;89.10
23137;DHT22;11737;50.558;7.258;2023-04-06T09:54:32;16.90;89.00
23137;DHT22;11737;50.558;7.258;2023-04-06T09:57:08;17.10;88.60
23137;DHT22;11737;50.558;7.258;2023-04-06T10:02:35;17.30;87.90
23137;DHT22;11737;50.558;7.258;2023-04-06T10:08:08;17.40;85.10
23137;DHT22;11737;50.558;7.258;2023-04-06T10:10:37;17.50;83.00
23137;DHT22;11737;50.558;7.258;2023-04-06T10:13:05;17.70;83.20
23137;DHT22;11737;50.558;7.258;2023-04-06T10:15:33;17.70;84.30
23137;DHT22;11737;50.558;7.258;2023-04-06T10:18:01;17.90;84.80
23137;DHT22;11737;50.558;7.258;2023-04-06T10:20:48;18.10;84.20
23137;DHT22;11737;50.558;7.258;2023-04-06T10:23:27;18.20;83.80
23137;DHT22;11737;50.558;7.258;2023-04-06T10:26:00;18.40;83.40
23137;DHT22;11737;50.558;7.258;2023-04-06T10:28:34;18.60;81.60
23137;DHT22;11737;50.558;7.258;2023-04-06T10:31:06;18.70;80.80
23137;DHT22;11737;50.558;7.258;2023-04-06T10:33:34;18.90;76.70
23137;DHT22;11737;50.558;7.258;2023-04-06T10:36:21;18.90;75.50
23137;DHT22;11737;50.558;7.258;2023-04-06T10:38:43;19.10;72.70
23137;DHT22;11737;50.558;7.258;2023-04-06T10:41:12;19.20;71.20
23137;DHT22;11737;50.558;7.258;2023-04-06T10:43:41;19.40;70.80
23137;DHT22;11737;50.558;7.258;2023-04-06T10:46:10;19.50;67.70
23137;DHT22;11737;50.558;7.258;2023-04-06T10:48:43;19.60;66.70
23137;DHT22;11737;50.558;7.258;2023-04-06T10:51:14;19.70;64.40
23137;DHT22;11737;50.558;7.258;2023-04-06T10:53:43;19.80;66.10
23137;DHT22;11737;50.558;7.258;2023-04-06T10:56:13;19.90;64.10
23137;DHT22;11737;50.558;7.258;2023-04-06T10:58:47;19.90;63.50
23137;DHT22;11737;50.558;7.258;2023-04-06T11:01:17;19.90;63.40
23137;DHT22;11737;50.558;7.258;2023-04-06T11:03:46;19.90;64.90
23137;DHT22;11737;50.558;7.258;2023-04-06T11:06:25;19.90;66.00
23137;DHT22;11737;50.558;7.258;2023-04-06T11:08:54;20.00;63.40
23137;DHT22;11737;50.558;7.258;2023-04-06T11:11:23;20.00;62.60
23137;DHT22;11737;50.558;7.258;2023-04-06T11:13:54;19.90;64.40
23137;DHT22;11737;50.558;7.258;2023-04-06T11:16:30;20.00;65.00
23137;DHT22;11737;50.558;7.258;2023-04-06T11:19:02;20.10;63.20
23137;DHT22;11737;50.558;7.258;2023-04-06T11:21:38;20.10;64.30
23137;DHT22;11737;50.558;7.258;2023-04-06T11:24:19;20.30;64.90
23137;DHT22;11737;50.558;7.258;2023-04-06T11:26:49;20.40;63.80
23137;DHT22;11737;50.558;7.258;2023-04-06T11:29:20;20.60;65.70
23137;DHT22;11737;50.558;7.258;2023-04-06T11:31:59;20.70;65.70
23137;DHT22;11737;50.558;7.258;2023-04-06T11:34:29;20.80;64.80
23137;DHT22;11737;50.558;7.258;2023-04-06T11:37:00;20.80;63.70
23137;DHT22;11737;50.558;7.258;2023-04-06T11:39:29;20.80;63.60
23137;DHT22;11737;50.558;7.258;2023-04-06T11:42:01;20.70;65.20
23137;DHT22;11737;50.558;7.258;2023-04-06T11:44:40;20.80;63.20
23137;DHT22;11737;50.558;7.258;2023-04-06T11:47:10;20.80;63.90
23137;DHT22;11737;50.558;7.258;2023-04-06T11:49:40;20.80;62.80
23137;DHT22;11737;50.558;7.258;2023-04-06T11:52:23;20.80;62.50
23137;DHT22;11737;50.558;7.258;2023-04-06T11:54:52;20.80;62.20
23137;DHT22;11737;50.558;7.258;2023-04-06T11:57:21;21.00;61.80
23137;DHT22;11737;50.558;7.258;2023-04-06T11:59:52;21.10;62.40
23137;DHT22;11737;50.558;7.258;2023-04-06T12:02:19;21.30;61.40
23137;DHT22;11737;50.558;7.258;2023-04-06T12:04:47;21.50;62.50
23137;DHT22;11737;50.558;7.258;2023-04-06T12:07:14;21.70;60.10
23137;DHT22;11737;50.558;7.258;2023-04-06T12:09:43;21.80;59.80
23137;DHT22;11737;50.558;7.258;2023-04-06T12:12:10;21.80;60.50
23137;DHT22;11737;50.558;7.258;2023-04-06T12:14:38;22.00;59.30
23137;DHT22;11737;50.558;7.258;2023-04-06T12:17:05;22.10;57.90
23137;DHT22;11737;50.558;7.258;2023-04-06T12:19:33;22.30;58.90
23137;DHT22;11737;50.558;7.258;2023-04-06T12:22:00;22.40;56.10
23137;DHT22;11737;50.558;7.258;2023-04-06T12:24:28;22.20;56.20
23137;DHT22;11737;50.558;7.258;2023-04-06T12:26:55;22.20;56.30
23137;DHT22;11737;50.558;7.258;2023-04-06T12:29:24;22.20;57.20
23137;DHT22;11737;50.558;7.258;2023-04-06T12:31:52;22.30;57.70
23137;DHT22;11737;50.558;7.258;2023-04-06T12:34:20;22.40;58.10
23137;DHT22;11737;50.558;7.258;2023-04-06T12:36:47;22.40;57.80
23137;DHT22;11737;50.558;7.258;2023-04-06T12:39:15;22.40;56.50
23137;DHT22;11737;50.558;7.258;2023-04-06T12:41:44;22.20;55.40
23137;DHT22;11737;50.558;7.258;2023-04-06T12:44:11;22.10;54.20
23137;DHT22;11737;50.558;7.258;2023-04-06T12:46:39;22.00;55.10
23137;DHT22;11737;50.558;7.258;2023-04-06T12:49:07;21.80;56.00
23137;DHT22;11737;50.558;7.258;2023-04-06T12:51:34;21.60;57.00
23137;DHT22;11737;50.558;7.258;2023-04-06T12:54:02;21.50;54.70
23137;DHT22;11737;50.558;7.258;2023-04-06T12:56:29;21.40;55.90
23137;DHT22;11737;50.558;7.258;2023-04-06T12:58:57;21.40;55.30
23137;DHT22;11737;50.558;7.258;2023-04-06T13:01:24;21.30;55.70
23137;DHT22;11737;50.558;7.258;2023-04-06T13:03:54;21.20;55.50
23137;DHT22;11737;50.558;7.258;2023-04-06T13:06:21;21.10;55.60
23137;DHT22;11737;50.558;7.258;2023-04-06T13:08:49;20.90;57.30
23137;DHT22;11737;50.558;7.258;2023-04-06T13:11:16;20.90;58.10
23137;DHT22;11737;50.558;7.258;2023-04-06T13:13:45;20.80;56.40
23137;DHT22;11737;50.558;7.258;2023-04-06T13:16:13;20.60;56.60
23137;DHT22;11737;50.558;7.258;2023-04-06T13:18:41;20.30;57.10
23137;DHT22;11737;50.558;7.258;2023-04-06T13:21:09;20.10;54.70
23137;DHT22;11737;50.558;7.258;2023-04-06T13:23:39;19.80;57.70
23137;DHT22;11737;50.558;7.258;2023-04-06T13:26:07;19.60;57.20
23137;DHT22;11737;50.558;7.258;2023-04-06T13:28:36;19.40;58.50
23137;DHT22;11737;50.558;7.258;2023-04-06T13:31:05;19.20;56.20
23137;DHT22;11737;50.558;7.258;2023-04-06T13:33:33;19.10;57.90
23137;DHT22;11737;50.558;7.258;2023-04-06T13:36:01;19.00;58.50
23137;DHT22;11737;50.558;7.258;2023-04-06T13:38:29;18.90;57.70
23137;DHT22;11737;50.558;7.258;2023-04-06T13:40:57;18.70;59.70
23137;DHT22;11737;50.558;7.258;2023-04-06T13:43:25;18.60;57.10
23137;DHT22;11737;50.558;7.258;2023-04-06T13:45:54;18.60;62.50
23137;DHT22;11737;50.558;7.258;2023-04-06T13:48:23;18.50;60.30
23137;DHT22;11737;50.558;7.258;2023-04-06T13:50:52;18.40;62.60
23137;DHT22;11737;50.558;7.258;2023-04-06T13:53:20;18.20;61.00
23137;DHT22;11737;50.558;7.258;2023-04-06T13:55:54;18.00;60.10
23137;DHT22;11737;50.558;7.258;2023-04-06T13:58:22;17.90;61.10
23137;DHT22;11737;50.558;7.258;2023-04-06T14:00:50;17.80;57.70
23137;DHT22;11737;50.558;7.258;2023-04-06T14:03:19;17.70;59.00
23137;DHT22;11737;50.558;7.258;2023-04-06T14:05:47;17.60;59.80
23137;DHT22;11737;50.558;7.258;2023-04-06T14:08:14;17.60;61.50
23137;DHT22;11737;50.558;7.258;2023-04-06T14:10:42;17.70;61.90
23137;DHT22;11737;50.558;7.258;2023-04-06T14:13:10;17.80;60.90
23137;DHT22;11737;50.558;7.258;2023-04-06T14:15:38;17.70;61.70
23137;DHT22;11737;50.558;7.258;2023-04-06T14:18:06;17.70;65.00
23137;DHT22;11737;50.558;7.258;2023-04-06T14:20:33;17.80;63.90
23137;DHT22;11737;50.558;7.258;2023-04-06T14:23:01;17.80;63.20
23137;DHT22;11737;50.558;7.258;2023-04-06T14:25:29;17.70;62.80
23137;DHT22;11737;50.558;7.258;2023-04-06T14:27:58;17.70;63.70
23137;DHT22;11737;50.558;7.258;2023-04-06T14:30:26;17.70;63.70
23137;DHT22;11737;50.558;7.258;2023-04-06T14:32:58;17.80;63.60
23137;DHT22;11737;50.558;7.258;2023-04-06T14:35:26;17.60;63.20
23137;DHT22;11737;50.558;7.258;2023-04-06T14:37:54;17.40;64.30
23137;DHT22;11737;50.558;7.258;2023-04-06T14:40:25;17.30;63.90
23137;DHT22;11737;50.558;7.258;2023-04-06T14:42:52;17.20;63.10
23137;DHT22;11737;50.558;7.258;2023-04-06T14:45:22;17.00;64.30
23137;DHT22;11737;50.558;7.258;2023-04-06T14:47:50;16.90;65.40
23137;DHT22;11737;50.558;7.258;2023-04-06T14:50:17;16.70;67.60
23137;DHT22;11737;50.558;7.258;2023-04-06T14:52:45;16.60;66.30
23137;DHT22;11737;50.558;7.258;2023-04-06T14:55:13;16.50;66.30
23137;DHT22;11737;50.558;7.258;2023-04-06T14:57:40;16.40;67.40
23137;DHT22;11737;50.558;7.258;2023-04-06T15:00:08;16.20;69.20
23137;DHT22;11737;50.558;7.258;2023-04-06T15:02:36;16.10;69.40
23137;DHT22;11737;50.558;7.258;2023-04-06T15:05:04;16.00;69.20
23137;DHT22;11737;50.558;7.258;2023-04-06T15:07:32;15.90;69.10
23137;DHT22;11737;50.558;7.258;2023-04-06T15:09:59;15.80;70.70
23137;DHT22;11737;50.558;7.258;2023-04-06T15:12:27;15.70;70.70
23137;DHT22;11737;50.558;7.258;2023-04-06T15:14:56;15.70;72.00
23137;DHT22;11737;50.558;7.258;2023-04-06T15:17:23;15.70;71.90
23137;DHT22;11737;50.558;7.258;2023-04-06T15:19:52;15.60;72.10
23137;DHT22;11737;50.558;7.258;2023-04-06T15:22:20;15.60;72.90
23137;DHT22;11737;50.558;7.258;2023-04-06T15:24:48;15.60;72.90
23137;DHT22;11737;50.558;7.258;2023-04-06T15:27:15;15.40;73.20
23137;DHT22;11737;50.558;7.258;2023-04-06T15:29:43;15.30;73.60
23137;DHT22;11737;50.558;7.258;2023-04-06T15:32:11;15.20;74.80
23137;DHT22;11737;50.558;7.258;2023-04-06T15:34:39;15.10;74.30
23137;DHT22;11737;50.558;7.258;2023-04-06T15:37:07;15.10;75.40
23137;DHT22;11737;50.558;7.258;2023-04-06T15:39:34;15.00;75.90
23137;DHT22;11737;50.558;7.258;2023-04-06T15:42:03;15.00;76.00
23137;DHT22;11737;50.558;7.258;2023-04-06T15:44:31;15.00;76.40
23137;DHT22;11737;50.558;7.258;2023-04-06T15:46:59;14.90;77.50
23137;DHT22;11737;50.558;7.258;2023-04-06T15:49:27;14.90;78.70
23137;DHT22;11737;50.558;7.258;2023-04-06T15:51:54;14.80;79.90
23137;DHT22;11737;50.558;7.258;2023-04-06T15:54:22;14.70;80.50